Time;durP1;ratioP1;P1;durP2;ratioP2;P2;SDS_P1;SDS_P2;PMS_P1;PMS_P2;Temp;Humidity;BMP_temperature;BMP_pressure;BME280_temperature;BME280_humidity;BME280_pressure;Samples;Min_cycle;Max_cycle;Signal;HPM_P1;HPM_P2
2022/05/01 00:00:53;;;;;;;;;27.00;26.50;;;;;15.89;69.96;101290.84;146606;579;47012;-67
2022/05/01 00:03:46;;;;;;;;;33.50;29.00;;;;;15.88;69.75;101295.16;146609;647;46012;-68
2022/05/01 00:06:38;;;;;;;;;27.75;27.50;;;;;15.88;69.68;101295.16;146604;588;46014;-67
2022/05/01 00:09:31;;;;;;;;;26.00;24.25;;;;;15.84;70.32;101290.66;146608;620;47010;-68
2022/05/01 00:12:23;;;;;;;;;30.50;27.50;;;;;15.82;70.46;101299.28;146606;581;46016;-67
2022/05/01 00:15:16;;;;;;;;;26.00;23.25;;;;;15.79;69.82;101304.37;146605;588;46029;-67
2022/05/01 00:18:08;;;;;;;;;27.00;25.25;;;;;15.75;69.97;101303.38;146606;588;46917;-67
2022/05/01 00:21:00;;;;;;;;;32.75;29.00;;;;;15.70;69.87;101300.59;146605;675;46010;-70
2022/05/01 00:23:52;;;;;;;;;27.25;26.00;;;;;15.68;69.80;101301.34;146606;609;46014;-66
2022/05/01 00:26:45;;;;;;;;;26.50;25.75;;;;;15.64;70.02;101295.09;146609;584;46010;-68
2022/05/01 00:29:37;;;;;;;;;26.75;23.75;;;;;15.57;69.40;101298.25;146605;601;46016;-65
2022/05/01 00:36:25;;;;;;;;;27.50;25.00;;;;;15.52;69.35;101301.53;146610;565;46011;-65
2022/05/01 00:38:52;;;;;;;;;26.75;25.75;;;;;15.39;70.01;101298.44;146628;571;46010;-70
2022/05/01 00:41:46;;;;;;;;;31.75;29.00;;;;;15.34;69.71;101310.41;146628;625;45014;-71
2022/05/01 00:44:39;;;;;;;;;28.00;23.75;;;;;15.33;69.68;101321.69;146629;580;45020;-72
2022/05/01 00:47:31;;;;;;;;;25.25;23.00;;;;;15.36;69.55;101320.94;146629;611;45012;-70
2022/05/01 00:50:23;;;;;;;;;30.75;26.25;;;;;15.40;69.43;101309.78;146629;656;45913;-70
2022/05/01 00:53:16;;;;;;;;;28.50;26.00;;;;;15.40;69.47;101309.78;146626;584;45016;-70
2022/05/01 00:56:08;;;;;;;;;31.50;28.50;;;;;15.40;69.22;101309.78;146630;576;45010;-69
2022/05/01 00:59:00;;;;;;;;;24.50;21.75;;;;;15.40;68.84;101307.16;146629;591;45016;-70
2022/05/01 01:01:53;;;;;;;;;28.50;24.50;;;;;15.39;69.45;101308.88;146629;642;45020;-69
2022/05/01 01:04:45;;;;;;;;;27.75;26.50;;;;;15.31;69.50;101297.22;146625;610;45012;-69
2022/05/01 01:07:38;;;;;;;;;29.75;26.50;;;;;15.24;69.00;101298.69;146630;575;45010;-67
2022/05/01 01:10:31;;;;;;;;;26.00;21.25;;;;;15.18;69.71;101293.22;146628;591;44917;-67
2022/05/01 01:13:30;;;;;;;;;24.50;23.50;;;;;15.14;69.54;101291.31;146630;581;45020;-68
2022/05/01 01:16:22;;;;;;;;;24.00;22.00;;;;;15.10;70.11;101289.38;146629;576;45012;-72
2022/05/01 01:19:15;;;;;;;;;26.00;23.25;;;;;15.06;69.64;101279.62;146626;594;46010;-73
2022/05/01 01:22:11;;;;;;;;;26.50;23.00;;;;;15.12;70.16;101277.28;146623;563;45016;-71
2022/05/01 01:25:04;;;;;;;;;25.00;21.50;;;;;15.19;69.66;101267.97;146631;567;45011;-69
2022/05/01 01:27:57;;;;;;;;;24.50;24.00;;;;;15.23;69.43;101262.97;146629;575;45016;-69
2022/05/01 01:34:08;;;;;;;;;25.50;21.75;;;;;14.29;68.93;101093.66;146616;593;46010;-70
2022/05/01 01:37:00;;;;;;;;;28.00;25.00;;;;;15.29;69.72;101275.34;146608;564;46020;-70
2022/05/01 01:39:53;;;;;;;;;23.75;22.00;;;;;15.28;69.60;101267.47;146607;617;46016;-69
2022/05/01 01:42:47;;;;;;;;;25.50;23.50;;;;;15.28;69.45;101270.06;146608;663;46010;-70
2022/05/01 01:45:39;;;;;;;;;26.50;23.00;;;;;15.27;69.10;101271.81;146607;699;45019;-70
2022/05/01 01:48:31;;;;;;;;;21.75;19.25;;;;;15.26;69.17;101267.37;146607;566;46010;-69
2022/05/01 01:51:24;;;;;;;;;29.00;25.50;;;;;15.29;69.05;101269.25;146608;584;45016;-69
2022/05/01 01:54:16;;;;;;;;;30.50;26.75;;;;;15.30;68.83;101255.38;146610;646;45026;-71
2022/05/01 01:57:09;;;;;;;;;30.25;27.50;;;;;15.32;68.71;101254.56;146606;573;46016;-69
2022/05/01 02:00:01;;;;;;;;;30.25;25.25;;;;;15.33;68.67;101251.16;146610;635;46012;-71
2022/05/01 02:02:53;;;;;;;;;28.00;25.75;;;;;15.36;69.01;101260.84;146605;599;46017;-71
2022/05/01 02:05:46;;;;;;;;;29.75;26.25;;;;;15.28;70.61;101267.47;146610;595;45912;-69
2022/05/01 02:08:40;;;;;;;;;30.50;25.75;;;;;15.15;70.05;101279.12;146608;570;46012;-69
2022/05/01 02:11:32;;;;;;;;;29.50;27.75;;;;;15.08;69.62;101270.16;146608;573;46020;-71
2022/05/01 02:14:25;;;;;;;;;26.00;23.75;;;;;15.07;69.53;101263.13;146607;612;46012;-70
2022/05/01 02:17:17;;;;;;;;;26.50;23.00;;;;;15.14;69.36;101266.88;146607;641;46012;-71
2022/05/01 02:20:11;;;;;;;;;21.50;21.50;;;;;15.18;69.28;101260.97;146604;614;46016;-71
2022/05/01 02:23:03;;;;;;;;;24.25;21.00;;;;;15.16;69.37;101268.72;146612;664;45020;-70
2022/05/01 02:25:55;;;;;;;;;24.50;22.25;;;;;15.17;69.17;101267.94;146605;597;46017;-70
2022/05/01 02:28:47;;;;;;;;;23.75;21.25;;;;;14.27;69.27;101111.00;146608;612;46020;-69
2022/05/01 02:31:53;;;;;;;;;23.25;22.00;;;;;15.14;70.20;101274.72;146606;616;46017;-70
2022/05/01 02:35:02;;;;;;;;;27.50;22.50;;;;;15.01;70.47;101279.47;146610;613;45912;-70
2022/05/01 02:37:54;;;;;;;;;26.25;23.00;;;;;14.93;69.85;101287.78;146598;564;47917;-68
2022/05/01 02:40:49;;;;;;;;;27.00;23.75;;;;;14.91;70.01;101282.50;146607;611;47010;-70
2022/05/01 02:43:43;;;;;;;;;26.00;22.00;;;;;14.93;70.97;101275.62;146607;614;46016;-71
2022/05/01 02:46:47;;;;;;;;;24.25;23.00;;;;;14.94;69.86;101280.00;146607;583;46011;-71
2022/05/01 02:49:40;;;;;;;;;22.50;19.75;;;;;14.94;69.77;101284.34;146601;708;46916;-71
2022/05/01 02:52:33;;;;;;;;;23.25;22.50;;;;;14.95;69.79;101286.12;146610;578;46010;-70
2022/05/01 02:55:25;;;;;;;;;21.50;20.50;;;;;14.92;70.63;101289.50;146608;603;46917;-67
2022/05/01 02:58:17;;;;;;;;;24.25;24.00;;;;;14.83;69.65;101282.97;146608;591;46010;-69
2022/05/01 03:01:10;;;;;;;;;20.75;19.50;;;;;14.81;69.78;101280.31;146606;588;46917;-69
2022/05/01 03:04:02;;;;;;;;;21.50;20.00;;;;;14.79;69.98;101277.63;146609;581;46024;-68
2022/05/01 03:06:54;;;;;;;;;23.75;22.25;;;;;14.79;69.76;101288.06;146605;619;47012;-71
2022/05/01 03:09:46;;;;;;;;;20.75;20.75;;;;;14.78;69.96;101286.28;146605;672;46021;-70
2022/05/01 03:12:38;;;;;;;;;20.50;20.00;;;;;14.81;69.67;101279.44;146605;578;46032;-70
2022/05/01 03:15:31;;;;;;;;;27.00;22.25;;;;;13.92;69.47;101113.78;146607;608;46010;-73
2022/05/01 03:24:45;;;;;;;;;25.50;21.50;;;;;14.93;68.84;101279.97;146604;598;47014;-67
2022/05/01 03:27:38;;;;;;;;;28.75;23.00;;;;;14.95;69.50;101297.47;146608;566;46020;-68
2022/05/01 03:30:29;;;;;;;;;22.50;21.00;;;;;14.91;69.42;101289.44;146606;602;46013;-69
2022/05/01 03:33:22;;;;;;;;;24.00;21.50;;;;;14.89;69.63;101298.91;146610;565;45021;-69
2022/05/01 03:36:14;;;;;;;;;28.25;23.50;;;;;14.87;69.54;101284.91;146607;619;46014;-70
2022/05/01 03:39:08;;;;;;;;;24.75;24.00;;;;;14.87;69.53;101291.03;146608;705;46011;-67
2022/05/01 03:42:00;;;;;;;;;32.25;26.25;;;;;14.81;71.10;101285.53;146605;582;46916;-68
2022/05/01 03:44:52;;;;;;;;;25.50;24.75;;;;;14.75;71.59;101295.72;146607;588;46010;-70
2022/05/01 03:47:44;;;;;;;;;26.25;24.50;;;;;14.72;70.59;101295.59;146606;564;46917;-70
2022/05/01 03:50:37;;;;;;;;;26.25;23.75;;;;;14.72;70.36;101291.25;146607;582;46020;-70
2022/05/01 03:53:32;;;;;;;;;26.75;23.50;;;;;14.75;70.05;101307.03;146602;598;47012;-68
2022/05/01 03:56:24;;;;;;;;;23.50;23.00;;;;;14.76;70.67;101307.94;146608;616;46010;-69
2022/05/01 03:59:16;;;;;;;;;26.00;23.00;;;;;14.70;70.37;101310.28;146606;604;46917;-70
2022/05/01 04:02:09;;;;;;;;;24.00;22.75;;;;;14.68;70.29;101318.06;146606;566;47010;-71
2022/05/01 04:05:00;;;;;;;;;26.25;24.50;;;;;14.72;70.25;101329.53;146606;606;46014;-72
2022/05/01 04:07:53;;;;;;;;;21.25;21.25;;;;;14.77;70.35;101328.91;146609;656;46010;-70
2022/05/01 04:10:46;;;;;;;;;25.00;24.00;;;;;14.85;70.55;101324.00;146606;600;46014;-67
2022/05/01 04:13:39;;;;;;;;;24.75;21.75;;;;;14.89;70.99;101315.50;146606;573;46020;-71
2022/05/01 04:16:31;;;;;;;;;26.50;24.00;;;;;14.86;71.87;101327.50;146604;609;46017;-68
2022/05/01 04:19:23;;;;;;;;;30.25;26.75;;;;;14.84;71.16;101318.72;146607;589;46020;-70
2022/05/01 04:22:15;;;;;;;;;28.00;27.25;;;;;14.86;70.61;101324.87;146606;675;46917;-68
2022/05/01 04:25:17;;;;;;;;;26.75;22.00;;;;;14.94;70.84;101323.50;146608;603;46012;-68
2022/05/01 04:28:11;;;;;;;;;21.50;20.75;;;;;15.05;70.13;101332.72;146605;569;46917;-69
2022/05/01 04:31:03;;;;;;;;;24.00;22.50;;;;;15.17;69.96;101329.69;146610;614;46011;-68
2022/05/01 04:33:56;;;;;;;;;25.50;21.75;;;;;15.30;70.23;101336.38;146607;653;46014;-69
2022/05/01 04:36:48;;;;;;;;;26.25;22.75;;;;;15.42;70.04;101324.69;146607;569;47010;-69
2022/05/01 04:39:40;;;;;;;;;21.50;21.50;;;;;15.51;70.17;101334.59;146605;643;46016;-70
2022/05/01 04:42:33;;;;;;;;;25.25;23.50;;;;;15.58;69.63;101334.06;146606;573;46012;-67
2022/05/01 04:45:26;;;;;;;;;21.75;20.75;;;;;15.64;69.40;101325.56;146607;569;46013;-67
2022/05/01 04:48:21;;;;;;;;;25.00;21.00;;;;;15.70;69.53;101321.50;146608;608;46010;-67
2022/05/01 04:51:13;;;;;;;;;29.25;26.75;;;;;15.82;69.64;101333.25;146608;650;46012;-67
2022/05/01 04:54:06;;;;;;;;;29.50;24.25;;;;;15.91;68.91;101326.66;146608;580;46010;-68
2022/05/01 04:57:09;;;;;;;;;23.75;21.00;;;;;16.02;68.92;101334.94;146606;651;46012;-67
2022/05/01 05:00:01;;;;;;;;;26.50;23.25;;;;;16.15;69.15;101329.34;146607;564;46021;-68
2022/05/01 05:02:56;;;;;;;;;27.25;27.00;;;;;16.28;68.58;101316.72;146606;601;46012;-67
2022/05/01 05:05:49;;;;;;;;;31.25;29.00;;;;;16.41;68.83;101318.97;146608;563;46010;-67
2022/05/01 05:11:50;;;;;;;;;26.75;26.25;;;;;16.71;69.19;101332.28;146606;595;46020;-67
2022/05/01 05:14:43;;;;;;;;;28.25;26.25;;;;;16.90;68.64;101331.25;146604;579;46017;-66
2022/05/01 05:17:35;;;;;;;;;37.25;31.00;;;;;17.14;67.94;101320.72;146607;631;46020;-68
2022/05/01 05:20:27;;;;;;;;;35.25;28.50;;;;;17.40;67.44;101331.19;146609;570;46012;-66
2022/05/01 05:23:20;;;;;;;;;32.50;28.25;;;;;17.63;66.61;101337.16;146606;664;47011;-67
2022/05/01 05:26:12;;;;;;;;;30.50;27.75;;;;;17.84;66.00;101337.88;146605;564;46024;-71
2022/05/01 05:29:04;;;;;;;;;28.75;28.25;;;;;17.99;65.09;101345.34;146611;583;46010;-69
2022/05/01 05:31:56;;;;;;;;;33.75;29.75;;;;;18.08;65.42;101339.50;146605;600;46016;-69
2022/05/01 05:34:49;;;;;;;;;30.75;27.75;;;;;18.14;64.92;101342.31;146607;612;46020;-69
2022/05/01 05:37:40;;;;;;;;;29.00;26.00;;;;;18.17;64.59;101340.66;146606;565;46016;-68
2022/05/01 05:40:33;;;;;;;;;24.75;24.25;;;;;18.24;63.95;101341.75;146609;564;46010;-69
2022/05/01 05:43:25;;;;;;;;;32.00;25.75;;;;;18.36;63.72;101346.47;146605;650;46037;-68
2022/05/01 05:46:17;;;;;;;;;27.50;24.25;;;;;18.46;63.76;101348.50;146606;616;46021;-66
2022/05/01 05:49:10;;;;;;;;;24.50;23.50;;;;;18.53;62.77;101347.84;146606;566;46016;-68
2022/05/01 05:52:03;;;;;;;;;28.25;23.50;;;;;18.63;63.11;101357.78;146610;613;46010;-67
2022/05/01 05:54:55;;;;;;;;;27.00;23.25;;;;;18.72;63.18;101359.75;146609;586;46012;-67
2022/05/01 05:57:47;;;;;;;;;30.00;28.00;;;;;18.83;63.31;101358.34;146607;569;46020;-66
2022/05/01 06:00:39;;;;;;;;;28.00;27.00;;;;;18.91;61.72;101354.22;146606;585;46017;-67
2022/05/01 06:03:31;;;;;;;;;28.50;27.25;;;;;18.96;62.32;101358.69;146609;640;46020;-64
2022/05/01 06:06:23;;;;;;;;;27.75;27.75;;;;;19.05;62.07;101361.56;146604;606;46016;-66
2022/05/01 06:09:15;;;;;;;;;29.50;24.00;;;;;19.16;61.85;101360.13;146608;621;46010;-66
2022/05/01 06:12:09;;;;;;;;;26.25;26.00;;;;;19.26;61.53;101356.88;146605;599;46016;-67
2022/05/01 06:15:01;;;;;;;;;26.00;21.50;;;;;19.35;60.80;101365.00;146609;612;46010;-67
2022/05/01 06:17:53;;;;;;;;;24.75;24.25;;;;;19.44;60.80;101351.22;146607;609;46012;-67
2022/05/01 06:20:46;;;;;;;;;22.75;22.00;;;;;19.62;60.70;101358.63;146611;588;46010;-68
2022/05/01 06:23:38;;;;;;;;;25.50;22.25;;;;;19.87;61.23;101365.41;146606;564;46016;-67
2022/05/01 06:26:30;;;;;;;;;22.25;21.00;;;;;20.15;58.90;101369.56;146610;563;46010;-67
2022/05/01 06:29:22;;;;;;;;;23.75;20.50;;;;;20.45;58.67;101379.00;146605;694;47013;-67
2022/05/01 06:32:19;;;;;;;;;21.75;21.75;;;;;20.71;58.04;101379.56;146608;579;46020;-77
2022/05/01 06:35:12;;;;;;;;;20.50;20.25;;;;;20.90;57.14;101383.44;146605;589;47012;-74
2022/05/01 06:38:04;;;;;;;;;20.00;19.00;;;;;20.98;56.83;101384.50;146605;624;46021;-82
2022/05/01 06:40:57;;;;;;;;;22.25;20.25;;;;;21.02;56.61;101381.06;146605;597;46033;-79
2022/05/01 06:43:49;;;;;;;;;20.75;19.00;;;;;21.03;56.27;101381.94;146608;594;46010;-78
2022/05/01 06:46:41;;;;;;;;;23.00;21.50;;;;;21.02;56.28;101383.69;146605;582;46917;-78
2022/05/01 06:49:33;;;;;;;;;21.00;19.75;;;;;21.03;55.67;101397.75;146612;611;45020;-76
2022/05/01 06:52:26;;;;;;;;;26.75;23.00;;;;;21.03;56.54;101393.41;146606;587;46917;-77
2022/05/01 06:55:19;;;;;;;;;30.00;24.25;;;;;20.97;56.01;101383.63;146608;603;47010;-73
2022/05/01 06:58:11;;;;;;;;;36.75;31.00;;;;;20.92;55.95;101387.00;146604;601;46016;-72
2022/05/01 07:01:03;;;;;;;;;38.50;30.50;;;;;20.89;56.92;101389.59;146607;666;46030;-72
2022/05/01 07:03:55;;;;;;;;;18.25;17.00;;;;;20.86;56.38;101395.69;146604;581;46014;-72
2022/05/01 07:06:48;;;;;;;;;14.50;13.50;;;;;20.82;55.49;101392.97;146607;722;46020;-72
2022/05/01 07:09:40;;;;;;;;;13.25;12.25;;;;;20.82;55.21;101392.97;146607;624;47014;-68
2022/05/01 07:12:33;;;;;;;;;9.25;8.25;;;;;20.77;55.33;101399.03;146609;605;46010;-67
2022/05/01 07:15:25;;;;;;;;;9.00;8.50;;;;;20.70;55.65;101393.59;146613;582;46032;-66
2022/05/01 07:18:17;;;;;;;;;10.25;10.00;;;;;20.69;55.92;101391.84;146608;660;46020;-66
2022/05/01 07:21:09;;;;;;;;;11.25;9.50;;;;;20.71;55.86;101390.09;146609;570;46016;-66
2022/05/01 07:24:01;;;;;;;;;7.50;7.50;;;;;20.70;55.27;101388.34;146615;584;46010;-66
2022/05/01 07:26:54;;;;;;;;;7.00;7.00;;;;;20.73;55.20;101383.13;146614;636;46016;-67
2022/05/01 07:29:46;;;;;;;;;12.25;10.50;;;;;20.80;55.29;101385.03;146612;597;46010;-68
2022/05/01 07:32:38;;;;;;;;;15.25;14.50;;;;;20.96;55.39;101388.84;146605;613;46916;-67
2022/05/01 07:35:30;;;;;;;;;14.75;13.25;;;;;21.00;54.68;101388.06;146605;566;46020;-69
2022/05/01 07:38:22;;;;;;;;;10.75;10.75;;;;;21.11;54.94;101385.63;146608;586;46012;-67
2022/05/01 07:41:14;;;;;;;;;14.25;14.25;;;;;21.27;54.58;101382.37;146607;569;46010;-66
2022/05/01 07:44:08;;;;;;;;;9.50;7.25;;;;;21.43;54.31;101373.03;146608;605;46014;-67
2022/05/01 07:47:00;;;;;;;;;16.00;14.25;;;;;21.70;52.94;101382.28;146610;638;46020;-65
2022/05/01 07:49:52;;;;;;;;;14.75;12.50;;;;;21.87;52.85;101383.44;146608;639;46013;-68
2022/05/01 07:52:44;;;;;;;;;12.50;12.50;;;;;21.97;52.76;101388.00;146608;598;46010;-68
2022/05/01 07:55:36;;;;;;;;;11.00;10.00;;;;;22.05;52.55;101388.97;146610;620;46917;-69
2022/05/01 07:58:29;;;;;;;;;13.75;12.50;;;;;22.07;52.43;101389.91;146607;613;46020;-70
2022/05/01 08:01:21;;;;;;;;;15.25;14.00;;;;;22.02;52.39;101385.41;146606;581;46016;-68
2022/05/01 08:04:28;;;;;;;;;13.50;12.50;;;;;21.91;51.98;101390.53;146604;610;46020;-70
2022/05/01 08:07:20;;;;;;;;;8.50;7.75;;;;;21.68;53.00;101375.22;146608;569;46017;-69
2022/05/01 08:10:17;;;;;;;;;12.75;12.00;;;;;21.40;54.09;101379.16;146609;582;46010;-68
2022/05/01 08:13:13;;;;;;;;;17.75;14.00;;;;;21.17;54.53;101383.09;146609;570;46025;-70
2022/05/01 08:16:34;;;;;;;;;15.25;13.50;;;;;21.02;56.03;101377.53;146608;639;45913;-69
2022/05/01 08:22:37;;;;;;;;;11.25;11.25;;;;;20.97;54.97;101377.47;146608;657;46020;-69
2022/05/01 08:26:17;;;;;;;;;15.25;12.75;;;;;20.87;55.51;101367.56;146609;591;47012;-71
2022/05/01 08:29:28;;;;;;;;;11.00;10.50;;;;;20.71;56.13;101372.53;146607;675;46020;-69
2022/05/01 08:32:20;;;;;;;;;14.50;13.25;;;;;20.58;54.98;101365.25;146606;685;46012;-68
2022/05/01 08:35:13;;;;;;;;;12.00;11.00;;;;;20.46;55.25;101368.47;146602;667;46020;-74
2022/05/01 08:38:08;;;;;;;;;14.00;12.50;;;;;20.42;55.16;101365.75;146607;609;46017;-73
2022/05/01 08:41:07;;;;;;;;;14.50;12.00;;;;;20.39;55.47;101378.88;146607;563;46020;-72
2022/05/01 08:44:00;;;;;;;;;15.50;14.50;;;;;20.32;55.05;101371.69;146607;589;45017;-73
2022/05/01 08:47:06;;;;;;;;;15.75;12.25;;;;;20.25;56.51;101358.41;146609;687;46010;-72
2022/05/01 08:50:00;;;;;;;;;36.75;28.75;;;;;20.24;56.46;101359.22;146605;577;46015;-73
2022/05/01 08:52:56;;;;;;;;;18.00;15.75;;;;;20.28;55.46;101366.38;146609;666;46010;-72
2022/05/01 08:55:48;;;;;;;;;15.00;13.00;;;;;20.33;55.24;101358.56;146607;652;46014;-74
2022/05/01 08:58:45;;;;;;;;;14.75;12.00;;;;;20.41;55.73;101354.34;146606;683;46021;-72
2022/05/01 09:01:42;;;;;;;;;13.50;13.50;;;;;20.48;55.57;101356.25;146604;611;46016;-72
2022/05/01 09:04:41;;;;;;;;;17.00;15.25;;;;;20.58;55.60;101359.97;146607;630;46010;-72
2022/05/01 09:07:36;;;;;;;;;13.50;12.00;;;;;20.64;54.33;101357.47;146607;627;46012;-73
2022/05/01 09:10:36;;;;;;;;;19.00;14.50;;;;;20.69;54.90;101353.19;146608;592;46010;-70
2022/05/01 09:13:30;;;;;;;;;15.25;14.00;;;;;20.87;54.35;101349.13;146607;570;46012;-71
2022/05/01 09:16:26;;;;;;;;;11.50;11.50;;;;;21.14;53.64;101351.41;146609;653;46030;-73
2022/05/01 09:19:34;;;;;;;;;13.00;12.00;;;;;21.32;54.00;101343.81;146605;586;47012;-72
2022/05/01 09:22:26;;;;;;;;;16.50;14.00;;;;;21.53;52.93;101345.94;146609;609;46010;-72
2022/05/01 09:25:23;;;;;;;;;14.50;14.00;;;;;21.58;52.37;101338.09;146604;605;46025;-72
2022/05/01 09:28:37;;;;;;;;;9.25;8.25;;;;;21.73;51.94;101343.62;146609;570;46010;-71
2022/05/01 09:32:05;;;;;;;;;14.00;10.75;;;;;21.94;52.41;101340.41;146612;626;46012;-73
2022/05/01 09:35:03;;;;;;;;;12.00;10.75;;;;;22.04;50.35;101338.78;146606;564;47010;-71
2022/05/01 09:38:30;;;;;;;;;7.25;6.75;;;;;22.08;53.24;101337.97;146612;672;46016;-71
2022/05/01 09:41:22;;;;;;;;;13.50;12.00;;;;;21.98;50.94;101338.72;146609;601;46020;-71
2022/05/01 09:44:22;;;;;;;;;12.00;10.00;;;;;21.82;52.92;101329.69;146608;710;46916;-71
2022/05/01 09:47:14;;;;;;;;;14.25;13.50;;;;;21.65;51.22;101321.47;146606;685;46020;-71
2022/05/01 09:50:06;;;;;;;;;8.00;8.00;;;;;21.50;52.43;101326.56;146614;615;46013;-73
2022/05/01 09:53:03;;;;;;;;;9.00;9.00;;;;;21.26;51.82;101327.00;146608;714;46020;-73
2022/05/01 09:56:03;;;;;;;;;10.25;8.25;;;;;20.44;53.59;101212.16;146607;594;46016;-73
2022/05/01 09:59:04;;;;;;;;;9.50;8.50;;;;;20.95;53.40;101313.25;146613;597;46021;-72
2022/05/01 10:02:14;;;;;;;;;10.00;8.75;;;;;20.86;54.02;101313.97;146610;575;46016;-72
2022/05/01 10:05:09;;;;;;;;;11.25;11.00;;;;;20.77;52.87;101305.91;146608;580;46020;-73
2022/05/01 10:08:02;;;;;;;;;14.00;14.00;;;;;20.70;52.48;101304.91;146608;632;45016;-72
2022/05/01 10:10:58;;;;;;;;;14.25;14.25;;;;;20.66;53.40;101315.37;146608;652;46020;-72
2022/05/01 10:13:51;;;;;;;;;14.50;13.25;;;;;20.66;52.20;101308.34;146605;585;46017;-70
2022/05/01 10:16:44;;;;;;;;;6.25;6.25;;;;;20.68;51.47;101305.72;146615;634;46020;-70
2022/05/01 10:19:37;;;;;;;;;10.50;10.25;;;;;20.68;53.26;101308.34;146606;594;46917;-68
2022/05/01 10:22:31;;;;;;;;;12.00;10.00;;;;;20.67;52.77;101298.69;146614;580;47010;-77
2022/05/01 10:25:23;;;;;;;;;10.50;10.50;;;;;20.63;51.91;101295.09;146615;571;45579;-72
2022/05/01 10:28:38;;;;;;;;;10.00;10.00;;;;;20.60;51.61;101286.25;146614;575;46010;-71
2022/05/01 10:32:22;;;;;;;;;9.00;9.00;;;;;20.60;52.22;101281.88;146614;652;46012;-71
2022/05/01 10:35:51;;;;;;;;;8.25;8.00;;;;;20.63;53.29;101281.94;146613;677;46021;-70
2022/05/01 10:38:54;;;;;;;;;10.50;10.50;;;;;20.69;51.96;101282.03;146609;565;46016;-70
2022/05/01 10:41:47;;;;;;;;;19.00;17.00;;;;;20.70;51.08;101275.03;146611;620;46020;-70
2022/05/01 10:44:40;;;;;;;;;17.25;15.00;;;;;20.74;52.31;101275.09;146607;756;46012;-71
2022/05/01 10:47:42;;;;;;;;;12.50;12.50;;;;;20.85;53.30;101269.16;146608;574;46020;-70
2022/05/01 10:50:34;;;;;;;;;11.00;10.00;;;;;20.95;53.04;101269.31;146609;574;46016;-71
2022/05/01 10:53:26;;;;;;;;;13.75;10.00;;;;;21.10;51.39;101265.19;146611;646;46010;-71
2022/05/01 10:56:26;;;;;;;;;15.25;14.50;;;;;21.24;52.01;101263.66;146604;600;46016;-71
2022/05/01 10:59:54;;;;;;;;;11.50;9.75;;;;;20.37;52.15;101088.22;146611;588;46021;-71
2022/05/01 11:02:50;;;;;;;;;10.50;10.25;;;;;21.38;50.63;101243.69;146608;638;46016;-70
2022/05/01 11:05:50;;;;;;;;;13.00;10.75;;;;;21.46;50.27;101241.16;146607;648;47021;-72
2022/05/01 11:08:42;;;;;;;;;9.50;9.00;;;;;21.56;49.16;101234.28;146605;622;46016;-70
2022/05/01 11:11:34;;;;;;;;;12.75;10.75;;;;;21.55;50.04;101228.09;146612;566;46010;-72
2022/05/01 11:14:38;;;;;;;;;6.75;6.75;;;;;21.62;51.01;101227.34;146609;582;46016;-70
2022/05/01 11:18:00;;;;;;;;;18.50;15.00;;;;;20.89;51.36;101049.56;146609;596;46020;-71
2022/05/01 11:20:51;;;;;;;;;11.75;10.75;;;;;21.97;49.32;101216.37;146605;574;46016;-71
2022/05/01 11:23:47;;;;;;;;;12.00;10.00;;;;;22.04;49.72;101214.69;146607;650;46029;-71
2022/05/01 11:26:39;;;;;;;;;10.75;10.75;;;;;22.18;49.02;101215.78;146611;707;46012;-71
2022/05/01 11:29:31;;;;;;;;;13.50;10.50;;;;;22.29;48.34;101203.56;146609;580;46010;-71
2022/05/01 11:32:24;;;;;;;;;13.50;12.00;;;;;22.36;48.89;101201.84;146603;704;46016;-70
2022/05/01 11:35:17;;;;;;;;;9.25;8.25;;;;;22.47;47.69;101202.87;146605;664;46021;-71
2022/05/01 11:38:12;;;;;;;;;7.25;7.25;;;;;22.54;47.65;101206.44;146613;658;46016;-70
2022/05/01 11:41:06;;;;;;;;;7.00;7.00;;;;;22.54;46.31;101187.94;146619;576;45020;-71
2022/05/01 11:44:26;;;;;;;;;10.25;10.25;;;;;21.76;47.55;101034.84;146610;566;46017;-70
2022/05/01 11:47:19;;;;;;;;;8.50;8.50;;;;;22.77;46.50;101186.41;146611;576;46010;-71
2022/05/01 11:50:21;;;;;;;;;11.75;9.00;;;;;22.94;48.36;101185.69;146606;671;46917;-72
2022/05/01 11:54:01;;;;;;;;;10.75;10.75;;;;;23.11;48.41;101175.22;146605;583;47010;-71
2022/05/01 12:03:15;;;;;;;;;9.00;7.75;;;;;23.57;45.33;101159.63;146609;590;47012;-71
2022/05/01 12:06:07;;;;;;;;;8.25;7.00;;;;;23.67;45.71;101154.38;146614;700;46010;-70
2022/05/01 12:08:59;;;;;;;;;7.00;6.00;;;;;23.84;43.53;101148.31;146616;569;46012;-71
2022/05/01 12:11:52;;;;;;;;;10.75;10.00;;;;;24.01;46.77;101148.34;146609;623;46011;-72
2022/05/01 12:14:45;;;;;;;;;9.25;9.25;;;;;24.06;44.72;101149.25;146609;659;46016;-71
2022/05/01 12:17:44;;;;;;;;;10.75;9.75;;;;;24.04;45.03;101149.25;146613;616;46010;-70
2022/05/01 12:20:38;;;;;;;;;8.00;8.00;;;;;23.96;46.89;101148.34;146607;703;46016;-73
2022/05/01 12:28:01;;;;;;;;;8.00;6.75;;;;;23.35;49.65;101159.50;146611;626;46012;-71
2022/05/01 12:30:54;;;;;;;;;10.50;9.00;;;;;23.11;46.88;101154.06;146611;657;46020;-72
2022/05/01 12:33:58;;;;;;;;;9.25;9.25;;;;;22.83;49.48;101153.81;146606;583;47014;-71
2022/05/01 12:37:03;;;;;;;;;10.33;9.00;;;;;22.55;47.90;101150.97;146627;603;45020;-72
2022/05/01 12:43:50;;;;;;;;;8.00;8.00;;;;;22.32;48.83;101157.78;146628;569;45017;-70
2022/05/01 12:46:39;;;;;;;;;8.67;5.67;;;;;22.02;47.27;101142.47;146635;630;45016;-70
2022/05/01 12:49:32;;;;;;;;;8.25;8.25;;;;;21.82;44.92;101135.22;146639;575;45010;-71
2022/05/01 12:52:43;;;;;;;;;9.00;9.00;;;;;21.55;46.83;101132.22;146635;590;45016;-70
2022/05/01 12:55:38;;;;;;;;;10.75;9.00;;;;;21.40;47.28;101140.81;146633;615;45010;-71
2022/05/01 12:58:37;;;;;;;;;8.25;8.25;;;;;21.37;47.50;101132.88;146637;575;45010;-70
2022/05/01 13:01:31;;;;;;;;;11.75;10.00;;;;;21.36;47.53;101121.44;146634;598;45010;-72
2022/05/01 13:04:34;;;;;;;;;10.00;9.50;;;;;21.45;48.47;101123.31;146630;648;46014;-71
2022/05/01 13:07:38;;;;;;;;;10.50;10.50;;;;;21.66;47.62;101120.94;146636;573;44049;-71
2022/05/01 13:10:30;;;;;;;;;11.75;10.75;;;;;21.87;46.87;101130.88;146634;679;45017;-71
2022/05/01 13:13:22;;;;;;;;;8.75;8.75;;;;;22.06;46.93;101121.41;146636;602;45010;-73
2022/05/01 13:16:15;;;;;;;;;9.50;9.25;;;;;22.31;46.09;101116.41;146628;635;45016;-72
2022/05/01 13:19:19;;;;;;;;;11.75;11.00;;;;;22.65;47.50;101125.50;146628;685;45012;-71
2022/05/01 13:22:13;;;;;;;;;12.50;10.00;;;;;23.03;46.50;101127.56;146630;703;45012;-72
2022/05/01 13:25:06;;;;;;;;;10.50;9.25;;;;;23.25;42.79;101124.19;146628;629;46021;-72
2022/05/01 13:27:58;;;;;;;;;10.75;8.50;;;;;23.28;42.82;101126.84;146634;575;45016;-72
2022/05/01 13:30:50;;;;;;;;;9.75;8.25;;;;;23.31;43.78;101128.63;146631;572;45020;-71
2022/05/01 13:33:42;;;;;;;;;9.75;9.25;;;;;23.31;43.26;101122.47;146630;677;45016;-71
2022/05/01 13:36:35;;;;;;;;;7.50;7.50;;;;;23.29;43.39;101125.97;146632;729;46010;-70
2022/05/01 13:45:49;;;;;;;;;8.00;8.00;;;;;22.93;43.12;101133.62;146635;643;45030;-70
2022/05/01 13:48:42;;;;;;;;;9.25;8.50;;;;;22.86;43.90;101123.88;146638;622;45021;-70
2022/05/01 13:51:35;;;;;;;;;6.25;6.25;;;;;22.80;43.77;101124.72;146633;579;45016;-72
2022/05/01 13:54:27;;;;;;;;;7.75;7.00;;;;;22.78;44.51;101118.56;146634;567;45012;-74
2022/05/01 13:57:21;;;;;;;;;7.00;7.00;;;;;22.83;44.36;101130.03;146634;566;45016;-71
2022/05/01 14:00:14;;;;;;;;;6.00;6.00;;;;;22.94;44.23;101117.81;146634;597;45021;-71